sensor_id;sensor_type;location;lat;lon;timestamp;pressure;altitude;pressure_sealevel;temperature;humidity
20023;BME280;10172;42.054;24.546;2023-06-22T00:00:47;98328.66;;;21.82;100.00
20023;BME280;10172;42.054;24.546;2023-06-22T00:03:12;98327.91;;;22.20;100.00
20023;BME280;10172;42.054;24.546;2023-06-22T00:05:38;98343.81;;;23.38;100.00
20023;BME280;10172;42.054;24.546;2023-06-22T00:08:04;98334.56;;;23.47;100.00
20023;BME280;10172;42.054;24.546;2023-06-22T00:10:32;98341.34;;;22.44;100.00
20023;BME280;10172;42.054;24.546;2023-06-22T00:12:58;98354.25;;;21.87;100.00
20023;BME280;10172;42.054;24.546;2023-06-22T00:15:23;98340.34;;;21.90;100.00
20023;BME280;10172;42.054;24.546;2023-06-22T00:17:49;98332.31;;;22.21;100.00
20023;BME280;10172;42.054;24.546;2023-06-22T00:20:15;98365.38;;;22.47;100.00
20023;BME280;10172;42.054;24.546;2023-06-22T00:22:42;98355.25;;;21.94;100.00
20023;BME280;10172;42.054;24.546;2023-06-22T00:25:08;98368.63;;;21.80;100.00
20023;BME280;10172;42.054;24.546;2023-06-22T00:27:36;98362.69;;;21.92;100.00
20023;BME280;10172;42.054;24.546;2023-06-22T00:30:02;98376.44;;;21.42;100.00
20023;BME280;10172;42.054;24.546;2023-06-22T00:32:28;98373.38;;;21.78;100.00
20023;BME280;10172;42.054;24.546;2023-06-22T00:34:54;98386.41;;;22.45;100.00
20023;BME280;10172;42.054;24.546;2023-06-22T00:37:19;98353.72;;;21.84;100.00
20023;BME280;10172;42.054;24.546;2023-06-22T00:39:48;98367.59;;;22.05;100.00
20023;BME280;10172;42.054;24.546;2023-06-22T00:42:14;98394.88;;;23.12;100.00
20023;BME280;10172;42.054;24.546;2023-06-22T00:44:39;98360.81;;;22.87;100.00
20023;BME280;10172;42.054;24.546;2023-06-22T00:47:06;98374.00;;;23.12;100.00
20023;BME280;10172;42.054;24.546;2023-06-22T00:49:31;98367.06;;;23.10;100.00
20023;BME280;10172;42.054;24.546;2023-06-22T00:51:57;98383.88;;;23.28;100.00
20023;BME280;10172;42.054;24.546;2023-06-22T00:54:24;98386.19;;;22.16;100.00
20023;BME280;10172;42.054;24.546;2023-06-22T00:56:56;98390.97;;;21.41;100.00
20023;BME280;10172;42.054;24.546;2023-06-22T00:59:23;98363.91;;;21.50;100.00
20023;BME280;10172;42.054;24.546;2023-06-22T01:01:50;98350.69;;;21.06;100.00
20023;BME280;10172;42.054;24.546;2023-06-22T01:04:15;98388.59;;;21.30;100.00
20023;BME280;10172;42.054;24.546;2023-06-22T01:06:47;98383.88;;;21.73;100.00
20023;BME280;10172;42.054;24.546;2023-06-22T01:09:28;98377.41;;;21.82;100.00
20023;BME280;10172;42.054;24.546;2023-06-22T01:12:00;98387.19;;;22.62;100.00
20023;BME280;10172;42.054;24.546;2023-06-22T01:14:33;98394.13;;;22.95;100.00
20023;BME280;10172;42.054;24.546;2023-06-22T01:17:01;98377.03;;;22.09;100.00
20023;BME280;10172;42.054;24.546;2023-06-22T01:19:45;98385.47;;;22.22;100.00
20023;BME280;10172;42.054;24.546;2023-06-22T01:22:16;98370.41;;;22.58;100.00
20023;BME280;10172;42.054;24.546;2023-06-22T01:24:57;98374.34;;;23.40;100.00
20023;BME280;10172;42.054;24.546;2023-06-22T01:30:16;98377.94;;;22.79;100.00
20023;BME280;10172;42.054;24.546;2023-06-22T01:32:42;98378.19;;;22.23;100.00
20023;BME280;10172;42.054;24.546;2023-06-22T01:35:10;98391.25;;;22.19;100.00
20023;BME280;10172;42.054;24.546;2023-06-22T01:37:37;98373.06;;;21.08;100.00
20023;BME280;10172;42.054;24.546;2023-06-22T01:40:04;98363.78;;;21.27;100.00
20023;BME280;10172;42.054;24.546;2023-06-22T01:42:31;98381.47;;;21.86;100.00
20023;BME280;10172;42.054;24.546;2023-06-22T01:44:58;98381.25;;;20.82;100.00
20023;BME280;10172;42.054;24.546;2023-06-22T01:47:25;98371.13;;;21.01;100.00
20023;BME280;10172;42.054;24.546;2023-06-22T01:49:51;98375.06;;;21.46;100.00
20023;BME280;10172;42.054;24.546;2023-06-22T01:52:17;98360.81;;;22.01;100.00
20023;BME280;10172;42.054;24.546;2023-06-22T01:54:43;98350.53;;;21.72;100.00
20023;BME280;10172;42.054;24.546;2023-06-22T01:57:08;98354.66;;;22.15;100.00
20023;BME280;10172;42.054;24.546;2023-06-22T02:02:15;98374.91;;;21.16;100.00
20023;BME280;10172;42.054;24.546;2023-06-22T02:04:48;98367.66;;;21.40;100.00
20023;BME280;10172;42.054;24.546;2023-06-22T02:07:18;98401.13;;;21.48;100.00
20023;BME280;10172;42.054;24.546;2023-06-22T02:09:46;98387.78;;;21.14;100.00
20023;BME280;10172;42.054;24.546;2023-06-22T02:12:17;98381.44;;;20.89;100.00
20023;BME280;10172;42.054;24.546;2023-06-22T02:14:44;98367.63;;;21.00;100.00
20023;BME280;10172;42.054;24.546;2023-06-22T02:17:11;98372.09;;;20.67;100.00
20023;BME280;10172;42.054;24.546;2023-06-22T02:19:38;98366.09;;;20.40;100.00
20023;BME280;10172;42.054;24.546;2023-06-22T02:22:04;98377.50;;;20.67;100.00
20023;BME280;10172;42.054;24.546;2023-06-22T02:24:30;98361.50;;;20.90;100.00
20023;BME280;10172;42.054;24.546;2023-06-22T02:27:01;98365.81;;;21.33;100.00
20023;BME280;10172;42.054;24.546;2023-06-22T02:29:27;98377.00;;;20.72;100.00
20023;BME280;10172;42.054;24.546;2023-06-22T02:31:54;98352.06;;;21.02;100.00
20023;BME280;10172;42.054;24.546;2023-06-22T02:34:19;98370.47;;;20.91;100.00
20023;BME280;10172;42.054;24.546;2023-06-22T02:36:46;98381.13;;;21.00;100.00
20023;BME280;10172;42.054;24.546;2023-06-22T02:39:25;98360.66;;;20.32;100.00
20023;BME280;10172;42.054;24.546;2023-06-22T02:41:52;98379.31;;;20.51;100.00
20023;BME280;10172;42.054;24.546;2023-06-22T02:44:18;98385.03;;;20.48;100.00
20023;BME280;10172;42.054;24.546;2023-06-22T02:46:44;98384.03;;;20.15;100.00
20023;BME280;10172;42.054;24.546;2023-06-22T02:49:10;98381.19;;;19.91;100.00
20023;BME280;10172;42.054;24.546;2023-06-22T02:51:38;98375.38;;;20.37;100.00
20023;BME280;10172;42.054;24.546;2023-06-22T02:54:05;98382.03;;;20.59;100.00
20023;BME280;10172;42.054;24.546;2023-06-22T02:56:30;98392.72;;;20.26;100.00
20023;BME280;10172;42.054;24.546;2023-06-22T02:58:56;98386.72;;;20.41;100.00
20023;BME280;10172;42.054;24.546;2023-06-22T03:01:28;98394.63;;;20.08;100.00
20023;BME280;10172;42.054;24.546;2023-06-22T03:03:56;98402.88;;;20.74;100.00
20023;BME280;10172;42.054;24.546;2023-06-22T03:06:21;98372.50;;;20.88;100.00
20023;BME280;10172;42.054;24.546;2023-06-22T03:08:58;98378.41;;;20.92;100.00
20023;BME280;10172;42.054;24.546;2023-06-22T03:11:24;98377.56;;;21.00;100.00
20023;BME280;10172;42.054;24.546;2023-06-22T03:13:50;98387.25;;;21.75;100.00
20023;BME280;10172;42.054;24.546;2023-06-22T03:16:17;98383.19;;;21.14;100.00
20023;BME280;10172;42.054;24.546;2023-06-22T03:18:43;98401.97;;;21.80;100.00
20023;BME280;10172;42.054;24.546;2023-06-22T03:21:09;98384.19;;;22.02;100.00
20023;BME280;10172;42.054;24.546;2023-06-22T03:23:34;98408.84;;;22.23;100.00
20023;BME280;10172;42.054;24.546;2023-06-22T03:26:00;98392.00;;;21.57;100.00
20023;BME280;10172;42.054;24.546;2023-06-22T03:28:25;98413.66;;;21.89;100.00
20023;BME280;10172;42.054;24.546;2023-06-22T03:30:51;98400.69;;;22.31;100.00
20023;BME280;10172;42.054;24.546;2023-06-22T03:33:16;98392.66;;;22.85;100.00
20023;BME280;10172;42.054;24.546;2023-06-22T03:35:41;98408.38;;;22.58;100.00
20023;BME280;10172;42.054;24.546;2023-06-22T03:38:07;98417.31;;;22.75;100.00
20023;BME280;10172;42.054;24.546;2023-06-22T03:40:33;98411.50;;;23.09;100.00
20023;BME280;10172;42.054;24.546;2023-06-22T03:42:58;98414.09;;;22.72;100.00
20023;BME280;10172;42.054;24.546;2023-06-22T03:45:23;98412.25;;;23.03;100.00
20023;BME280;10172;42.054;24.546;2023-06-22T03:47:49;98431.94;;;23.28;100.00
20023;BME280;10172;42.054;24.546;2023-06-22T03:50:14;98420.78;;;23.14;100.00
20023;BME280;10172;42.054;24.546;2023-06-22T03:52:40;98429.22;;;22.03;100.00
20023;BME280;10172;42.054;24.546;2023-06-22T03:55:06;98422.06;;;22.18;100.00
20023;BME280;10172;42.054;24.546;2023-06-22T03:57:32;98414.00;;;21.70;100.00
20023;BME280;10172;42.054;24.546;2023-06-22T03:59:58;98426.53;;;21.63;100.00
20023;BME280;10172;42.054;24.546;2023-06-22T04:02:24;98416.25;;;22.37;100.00
20023;BME280;10172;42.054;24.546;2023-06-22T04:04:49;98420.59;;;22.54;100.00
20023;BME280;10172;42.054;24.546;2023-06-22T04:07:15;98413.88;;;22.34;100.00
20023;BME280;10172;42.054;24.546;2023-06-22T04:09:40;98404.34;;;21.59;100.00
20023;BME280;10172;42.054;24.546;2023-06-22T04:12:06;98389.28;;;21.73;100.00
20023;BME280;10172;42.054;24.546;2023-06-22T04:14:31;98411.25;;;22.10;100.00
20023;BME280;10172;42.054;24.546;2023-06-22T04:16:57;98433.44;;;22.69;100.00
20023;BME280;10172;42.054;24.546;2023-06-22T04:19:23;98433.88;;;22.80;100.00
20023;BME280;10172;42.054;24.546;2023-06-22T04:21:48;98420.13;;;22.82;100.00
20023;BME280;10172;42.054;24.546;2023-06-22T04:24:14;98416.28;;;23.38;100.00
20023;BME280;10172;42.054;24.546;2023-06-22T04:26:40;98440.59;;;23.91;100.00
20023;BME280;10172;42.054;24.546;2023-06-22T04:29:07;98407.41;;;23.96;100.00
20023;BME280;10172;42.054;24.546;2023-06-22T04:31:37;98450.63;;;24.43;100.00
20023;BME280;10172;42.054;24.546;2023-06-22T04:34:07;98439.94;;;24.41;100.00
20023;BME280;10172;42.054;24.546;2023-06-22T04:36:34;98450.53;;;24.65;100.00
20023;BME280;10172;42.054;24.546;2023-06-22T04:39:10;98433.25;;;24.87;100.00
20023;BME280;10172;42.054;24.546;2023-06-22T04:41:37;98450.16;;;24.98;100.00
20023;BME280;10172;42.054;24.546;2023-06-22T04:44:10;98449.56;;;24.87;100.00
20023;BME280;10172;42.054;24.546;2023-06-22T04:46:36;98458.97;;;24.70;100.00
20023;BME280;10172;42.054;24.546;2023-06-22T04:49:07;98437.03;;;24.86;100.00
20023;BME280;10172;42.054;24.546;2023-06-22T04:51:40;98430.97;;;25.06;100.00
20023;BME280;10172;42.054;24.546;2023-06-22T04:54:07;98437.47;;;25.26;100.00
20023;BME280;10172;42.054;24.546;2023-06-22T04:56:33;98425.03;;;25.17;100.00
20023;BME280;10172;42.054;24.546;2023-06-22T04:58:59;98414.81;;;25.19;100.00
20023;BME280;10172;42.054;24.546;2023-06-22T05:01:24;98425.81;;;25.46;100.00
20023;BME280;10172;42.054;24.546;2023-06-22T05:03:51;98429.16;;;25.70;100.00
20023;BME280;10172;42.054;24.546;2023-06-22T05:06:23;98421.47;;;25.52;100.00
20023;BME280;10172;42.054;24.546;2023-06-22T05:08:59;98426.75;;;25.81;100.00
20023;BME280;10172;42.054;24.546;2023-06-22T05:11:28;98426.31;;;25.78;100.00
20023;BME280;10172;42.054;24.546;2023-06-22T05:13:53;98431.53;;;26.00;95.58
20023;BME280;10172;42.054;24.546;2023-06-22T05:16:20;98417.09;;;26.06;92.88
20023;BME280;10172;42.054;24.546;2023-06-22T05:18:55;98434.66;;;26.25;90.99
20023;BME280;10172;42.054;24.546;2023-06-22T05:21:25;98433.94;;;26.38;91.04
20023;BME280;10172;42.054;24.546;2023-06-22T05:23:51;98413.03;;;26.58;88.68
20023;BME280;10172;42.054;24.546;2023-06-22T05:26:18;98422.69;;;26.54;90.21
20023;BME280;10172;42.054;24.546;2023-06-22T05:28:44;98426.22;;;26.48;87.58
20023;BME280;10172;42.054;24.546;2023-06-22T05:31:16;98422.59;;;26.75;87.29
20023;BME280;10172;42.054;24.546;2023-06-22T05:33:43;98412.81;;;26.94;85.81
20023;BME280;10172;42.054;24.546;2023-06-22T05:36:09;98430.16;;;27.33;83.55
20023;BME280;10172;42.054;24.546;2023-06-22T05:38:36;98412.09;;;27.39;83.09
20023;BME280;10172;42.054;24.546;2023-06-22T05:41:01;98408.41;;;27.47;82.98
20023;BME280;10172;42.054;24.546;2023-06-22T05:43:27;98401.94;;;27.07;82.03
20023;BME280;10172;42.054;24.546;2023-06-22T05:45:52;98411.25;;;27.32;83.22
20023;BME280;10172;42.054;24.546;2023-06-22T05:48:18;98415.13;;;27.64;80.77
20023;BME280;10172;42.054;24.546;2023-06-22T05:50:43;98405.47;;;27.94;81.01
20023;BME280;10172;42.054;24.546;2023-06-22T05:53:09;98399.53;;;28.36;78.32
20023;BME280;10172;42.054;24.546;2023-06-22T05:55:34;98409.84;;;28.47;75.57
20023;BME280;10172;42.054;24.546;2023-06-22T05:58:00;98406.00;;;28.62;76.46
20023;BME280;10172;42.054;24.546;2023-06-22T06:00:25;98412.00;;;29.03;76.21
20023;BME280;10172;42.054;24.546;2023-06-22T06:02:51;98418.22;;;29.23;73.82
20023;BME280;10172;42.054;24.546;2023-06-22T06:05:16;98421.81;;;29.55;73.13
20023;BME280;10172;42.054;24.546;2023-06-22T06:07:43;98415.72;;;29.15;71.59
20023;BME280;10172;42.054;24.546;2023-06-22T06:10:09;98424.97;;;29.21;71.63
20023;BME280;10172;42.054;24.546;2023-06-22T06:12:35;98428.25;;;29.74;74.39
20023;BME280;10172;42.054;24.546;2023-06-22T06:15:01;98438.44;;;29.98;72.37
20023;BME280;10172;42.054;24.546;2023-06-22T06:17:26;98424.69;;;29.67;65.86
20023;BME280;10172;42.054;24.546;2023-06-22T06:19:52;98426.44;;;29.61;63.50
20023;BME280;10172;42.054;24.546;2023-06-22T06:22:18;98448.34;;;28.53;66.27
20023;BME280;10172;42.054;24.546;2023-06-22T06:24:45;98429.25;;;28.33;63.43
20023;BME280;10172;42.054;24.546;2023-06-22T06:27:10;98420.19;;;28.00;65.60
20023;BME280;10172;42.054;24.546;2023-06-22T06:29:36;98437.88;;;28.17;66.36
20023;BME280;10172;42.054;24.546;2023-06-22T06:32:01;98427.56;;;28.19;63.35
20023;BME280;10172;42.054;24.546;2023-06-22T06:34:27;98428.09;;;28.80;63.11
20023;BME280;10172;42.054;24.546;2023-06-22T06:36:52;98421.97;;;28.84;62.05
20023;BME280;10172;42.054;24.546;2023-06-22T06:39:18;98430.69;;;28.48;64.16
20023;BME280;10172;42.054;24.546;2023-06-22T06:41:43;98437.88;;;28.10;66.14
20023;BME280;10172;42.054;24.546;2023-06-22T06:44:09;98423.34;;;28.29;66.86
20023;BME280;10172;42.054;24.546;2023-06-22T06:46:34;98420.53;;;29.26;64.45
20023;BME280;10172;42.054;24.546;2023-06-22T06:49:00;98423.28;;;28.69;64.71
20023;BME280;10172;42.054;24.546;2023-06-22T06:51:25;98430.28;;;29.53;64.03
20023;BME280;10172;42.054;24.546;2023-06-22T06:53:50;98433.25;;;29.08;62.14
20023;BME280;10172;42.054;24.546;2023-06-22T06:56:16;98426.22;;;29.18;62.52
20023;BME280;10172;42.054;24.546;2023-06-22T06:58:42;98438.38;;;28.91;62.64
20023;BME280;10172;42.054;24.546;2023-06-22T07:01:08;98440.34;;;28.64;64.12
20023;BME280;10172;42.054;24.546;2023-06-22T07:03:33;98433.69;;;29.04;63.56
20023;BME280;10172;42.054;24.546;2023-06-22T07:05:59;98436.63;;;29.47;61.62
20023;BME280;10172;42.054;24.546;2023-06-22T07:08:25;98432.75;;;29.61;61.40
20023;BME280;10172;42.054;24.546;2023-06-22T07:10:52;98449.97;;;29.69;62.08
20023;BME280;10172;42.054;24.546;2023-06-22T07:13:18;98455.94;;;29.66;60.71
20023;BME280;10172;42.054;24.546;2023-06-22T07:15:43;98440.44;;;30.09;59.17
20023;BME280;10172;42.054;24.546;2023-06-22T07:18:09;98451.69;;;30.26;59.01
20023;BME280;10172;42.054;24.546;2023-06-22T07:20:34;98441.09;;;30.29;58.74
20023;BME280;10172;42.054;24.546;2023-06-22T07:23:00;98429.53;;;29.71;60.02
20023;BME280;10172;42.054;24.546;2023-06-22T07:25:25;98449.00;;;29.12;59.50
20023;BME280;10172;42.054;24.546;2023-06-22T07:28:01;98451.81;;;28.99;61.72
20023;BME280;10172;42.054;24.546;2023-06-22T07:30:28;98448.63;;;29.09;60.78
20023;BME280;10172;42.054;24.546;2023-06-22T07:32:54;98446.13;;;30.32;57.68
20023;BME280;10172;42.054;24.546;2023-06-22T07:35:19;98443.88;;;28.78;59.14
20023;BME280;10172;42.054;24.546;2023-06-22T07:37:45;98451.03;;;29.36;57.39
20023;BME280;10172;42.054;24.546;2023-06-22T07:40:11;98454.97;;;30.09;54.85
20023;BME280;10172;42.054;24.546;2023-06-22T07:42:37;98442.28;;;29.21;58.53
20023;BME280;10172;42.054;24.546;2023-06-22T07:45:03;98441.53;;;30.26;56.04
20023;BME280;10172;42.054;24.546;2023-06-22T07:47:29;98456.75;;;30.90;55.08
20023;BME280;10172;42.054;24.546;2023-06-22T07:49:55;98434.56;;;31.57;53.24
20023;BME280;10172;42.054;24.546;2023-06-22T07:52:24;98445.13;;;31.60;52.49
20023;BME280;10172;42.054;24.546;2023-06-22T07:54:50;98447.81;;;31.90;51.43
20023;BME280;10172;42.054;24.546;2023-06-22T07:57:16;98430.19;;;31.68;51.41
20023;BME280;10172;42.054;24.546;2023-06-22T07:59:42;98440.75;;;30.87;53.58
20023;BME280;10172;42.054;24.546;2023-06-22T08:02:07;98445.97;;;30.52;54.17
20023;BME280;10172;42.054;24.546;2023-06-22T08:04:34;98457.44;;;30.85;53.42
20023;BME280;10172;42.054;24.546;2023-06-22T08:07:00;98449.63;;;31.55;50.45
20023;BME280;10172;42.054;24.546;2023-06-22T08:09:28;98449.34;;;31.86;48.64
20023;BME280;10172;42.054;24.546;2023-06-22T08:11:53;98437.19;;;31.52;47.54
20023;BME280;10172;42.054;24.546;2023-06-22T08:14:20;98432.47;;;32.59;46.37
20023;BME280;10172;42.054;24.546;2023-06-22T08:16:46;98434.00;;;32.89;47.01
20023;BME280;10172;42.054;24.546;2023-06-22T08:19:12;98414.00;;;30.39;49.96
20023;BME280;10172;42.054;24.546;2023-06-22T08:21:37;98415.25;;;30.43;51.51
20023;BME280;10172;42.054;24.546;2023-06-22T08:24:03;98419.06;;;31.15;51.48
20023;BME280;10172;42.054;24.546;2023-06-22T08:26:29;98412.75;;;31.74;49.95
20023;BME280;10172;42.054;24.546;2023-06-22T08:28:54;98420.59;;;32.23;47.88
20023;BME280;10172;42.054;24.546;2023-06-22T08:31:19;98400.75;;;33.19;47.90
20023;BME280;10172;42.054;24.546;2023-06-22T08:33:45;98420.47;;;33.67;43.26
20023;BME280;10172;42.054;24.546;2023-06-22T08:36:11;98405.94;;;34.05;43.52
20023;BME280;10172;42.054;24.546;2023-06-22T08:38:39;98411.97;;;33.29;44.92
20023;BME280;10172;42.054;24.546;2023-06-22T08:41:04;98412.44;;;33.38;43.64
20023;BME280;10172;42.054;24.546;2023-06-22T08:43:30;98388.63;;;33.60;43.65
20023;BME280;10172;42.054;24.546;2023-06-22T08:45:55;98390.75;;;34.19;43.66
20023;BME280;10172;42.054;24.546;2023-06-22T08:48:21;98406.13;;;34.87;42.81
20023;BME280;10172;42.054;24.546;2023-06-22T08:50:46;98388.03;;;33.75;42.62
20023;BME280;10172;42.054;24.546;2023-06-22T08:53:12;98384.16;;;33.59;44.53
20023;BME280;10172;42.054;24.546;2023-06-22T08:55:38;98402.41;;;32.34;43.86
20023;BME280;10172;42.054;24.546;2023-06-22T08:58:03;98388.84;;;33.58;42.60
20023;BME280;10172;42.054;24.546;2023-06-22T09:00:29;98416.34;;;34.15;42.25
20023;BME280;10172;42.054;24.546;2023-06-22T09:02:57;98396.81;;;33.15;42.60
20023;BME280;10172;42.054;24.546;2023-06-22T09:05:24;98417.06;;;33.49;42.41
20023;BME280;10172;42.054;24.546;2023-06-22T09:07:51;98401.97;;;33.40;41.74
20023;BME280;10172;42.054;24.546;2023-06-22T09:10:17;98380.63;;;34.08;41.47
20023;BME280;10172;42.054;24.546;2023-06-22T09:12:42;98393.72;;;34.51;40.85
20023;BME280;10172;42.054;24.546;2023-06-22T09:15:08;98405.13;;;34.38;41.23
20023;BME280;10172;42.054;24.546;2023-06-22T09:17:34;98396.25;;;34.03;40.58
20023;BME280;10172;42.054;24.546;2023-06-22T09:20:01;98380.38;;;34.26;39.91
20023;BME280;10172;42.054;24.546;2023-06-22T09:22:27;98405.63;;;34.35;39.42
20023;BME280;10172;42.054;24.546;2023-06-22T09:24:55;98399.25;;;33.68;39.57
20023;BME280;10172;42.054;24.546;2023-06-22T09:27:21;98399.69;;;32.22;40.64
20023;BME280;10172;42.054;24.546;2023-06-22T09:29:47;98401.63;;;33.36;40.03
20023;BME280;10172;42.054;24.546;2023-06-22T09:32:13;98384.22;;;32.79;39.88
20023;BME280;10172;42.054;24.546;2023-06-22T09:34:38;98357.78;;;31.44;43.58
20023;BME280;10172;42.054;24.546;2023-06-22T09:37:04;98392.88;;;31.42;43.35
20023;BME280;10172;42.054;24.546;2023-06-22T09:39:30;98393.03;;;31.88;43.02
20023;BME280;10172;42.054;24.546;2023-06-22T09:41:57;98380.44;;;33.65;41.31
20023;BME280;10172;42.054;24.546;2023-06-22T09:44:23;98369.72;;;33.85;39.70
20023;BME280;10172;42.054;24.546;2023-06-22T09:46:48;98369.53;;;34.80;37.32
20023;BME280;10172;42.054;24.546;2023-06-22T09:49:13;98379.56;;;34.86;37.04
20023;BME280;10172;42.054;24.546;2023-06-22T09:51:39;98370.88;;;34.99;38.32
20023;BME280;10172;42.054;24.546;2023-06-22T09:54:04;98368.56;;;35.34;36.93
20023;BME280;10172;42.054;24.546;2023-06-22T09:56:30;98357.44;;;32.17;40.16
20023;BME280;10172;42.054;24.546;2023-06-22T09:58:56;98371.53;;;32.43;40.81
20023;BME280;10172;42.054;24.546;2023-06-22T10:01:22;98353.41;;;33.22;39.79
20023;BME280;10172;42.054;24.546;2023-06-22T10:03:48;98367.41;;;34.27;37.90
20023;BME280;10172;42.054;24.546;2023-06-22T10:06:13;98363.63;;;33.83;37.68
20023;BME280;10172;42.054;24.546;2023-06-22T10:08:38;98369.97;;;34.72;36.99
20023;BME280;10172;42.054;24.546;2023-06-22T10:11:06;98384.06;;;34.92;35.89
20023;BME280;10172;42.054;24.546;2023-06-22T10:13:31;98367.88;;;35.76;35.43
20023;BME280;10172;42.054;24.546;2023-06-22T10:15:57;98374.16;;;36.30;34.90
20023;BME280;10172;42.054;24.546;2023-06-22T10:18:22;98364.47;;;36.32;33.68
20023;BME280;10172;42.054;24.546;2023-06-22T10:20:49;98376.16;;;36.44;33.41
20023;BME280;10172;42.054;24.546;2023-06-22T10:23:17;98369.72;;;36.71;33.89
20023;BME280;10172;42.054;24.546;2023-06-22T10:25:42;98374.72;;;36.74;33.76
20023;BME280;10172;42.054;24.546;2023-06-22T10:28:08;98364.13;;;36.61;32.84
20023;BME280;10172;42.054;24.546;2023-06-22T10:30:33;98363.31;;;34.90;33.75
20023;BME280;10172;42.054;24.546;2023-06-22T10:32:58;98356.31;;;34.82;34.70
20023;BME280;10172;42.054;24.546;2023-06-22T10:35:24;98349.81;;;35.63;34.49
20023;BME280;10172;42.054;24.546;2023-06-22T10:37:50;98346.25;;;36.41;33.76
20023;BME280;10172;42.054;24.546;2023-06-22T10:40:16;98342.28;;;36.74;33.53
20023;BME280;10172;42.054;24.546;2023-06-22T10:42:44;98353.41;;;37.51;32.05
20023;BME280;10172;42.054;24.546;2023-06-22T10:45:10;98342.56;;;37.45;32.20
20023;BME280;10172;42.054;24.546;2023-06-22T10:47:36;98328.56;;;36.99;32.08
20023;BME280;10172;42.054;24.546;2023-06-22T10:50:02;98328.34;;;37.26;32.19
20023;BME280;10172;42.054;24.546;2023-06-22T10:52:28;98311.78;;;37.51;31.70
20023;BME280;10172;42.054;24.546;2023-06-22T10:54:53;98329.56;;;37.91;31.65
20023;BME280;10172;42.054;24.546;2023-06-22T10:57:19;98301.75;;;37.20;33.29
20023;BME280;10172;42.054;24.546;2023-06-22T10:59:44;98303.72;;;36.58;32.61
20023;BME280;10172;42.054;24.546;2023-06-22T11:02:10;98316.72;;;36.52;33.65
20023;BME280;10172;42.054;24.546;2023-06-22T11:04:35;98321.38;;;37.08;36.06
20023;BME280;10172;42.054;24.546;2023-06-22T11:07:01;98318.19;;;36.80;33.68
20023;BME280;10172;42.054;24.546;2023-06-22T11:09:26;98308.06;;;36.48;33.93
20023;BME280;10172;42.054;24.546;2023-06-22T11:11:52;98296.72;;;36.50;34.48
20023;BME280;10172;42.054;24.546;2023-06-22T11:14:21;98296.41;;;36.41;33.36
20023;BME280;10172;42.054;24.546;2023-06-22T11:16:47;98311.09;;;36.99;32.78
20023;BME280;10172;42.054;24.546;2023-06-22T11:19:13;98321.69;;;37.17;31.95
20023;BME280;10172;42.054;24.546;2023-06-22T11:21:38;98314.34;;;36.34;32.56
20023;BME280;10172;42.054;24.546;2023-06-22T11:24:04;98316.19;;;36.18;35.31
20023;BME280;10172;42.054;24.546;2023-06-22T11:26:30;98329.53;;;35.89;36.33
20023;BME280;10172;42.054;24.546;2023-06-22T11:28:57;98328.53;;;36.42;36.56
20023;BME280;10172;42.054;24.546;2023-06-22T11:31:23;98315.34;;;36.54;32.97
20023;BME280;10172;42.054;24.546;2023-06-22T11:33:49;98326.75;;;36.68;37.84
20023;BME280;10172;42.054;24.546;2023-06-22T11:36:15;98325.09;;;36.67;32.82
20023;BME280;10172;42.054;24.546;2023-06-22T11:38:42;98310.19;;;35.94;34.47
20023;BME280;10172;42.054;24.546;2023-06-22T11:41:08;98322.34;;;35.57;35.87
20023;BME280;10172;42.054;24.546;2023-06-22T11:43:33;98308.34;;;34.93;35.93
20023;BME280;10172;42.054;24.546;2023-06-22T11:46:01;98315.50;;;35.11;35.49
20023;BME280;10172;42.054;24.546;2023-06-22T11:48:26;98327.59;;;35.58;39.09
20023;BME280;10172;42.054;24.546;2023-06-22T11:50:52;98321.44;;;35.24;36.57
20023;BME280;10172;42.054;24.546;2023-06-22T11:53:17;98309.34;;;35.57;39.59
20023;BME280;10172;42.054;24.546;2023-06-22T11:55:44;98316.94;;;36.04;37.69
20023;BME280;10172;42.054;24.546;2023-06-22T11:58:10;98308.59;;;35.67;37.09
20023;BME280;10172;42.054;24.546;2023-06-22T12:00:37;98318.88;;;36.03;36.37
20023;BME280;10172;42.054;24.546;2023-06-22T12:03:02;98295.94;;;35.76;36.53
20023;BME280;10172;42.054;24.546;2023-06-22T12:05:28;98313.59;;;36.02;35.81
20023;BME280;10172;42.054;24.546;2023-06-22T12:07:54;98299.50;;;36.03;35.64
20023;BME280;10172;42.054;24.546;2023-06-22T12:10:20;98300.78;;;36.32;34.44
20023;BME280;10172;42.054;24.546;2023-06-22T12:12:46;98292.75;;;35.94;34.29
20023;BME280;10172;42.054;24.546;2023-06-22T12:15:12;98300.97;;;36.21;33.96
20023;BME280;10172;42.054;24.546;2023-06-22T12:17:37;98303.38;;;36.49;34.59
20023;BME280;10172;42.054;24.546;2023-06-22T12:20:03;98297.50;;;36.40;33.82
20023;BME280;10172;42.054;24.546;2023-06-22T12:22:34;98295.53;;;35.99;33.61
20023;BME280;10172;42.054;24.546;2023-06-22T12:25:00;98276.00;;;35.74;33.65
20023;BME280;10172;42.054;24.546;2023-06-22T12:27:26;98298.59;;;36.39;34.78
20023;BME280;10172;42.054;24.546;2023-06-22T12:29:51;98301.59;;;36.28;34.06
20023;BME280;10172;42.054;24.546;2023-06-22T12:32:17;98282.22;;;35.27;34.21
20023;BME280;10172;42.054;24.546;2023-06-22T12:34:43;98283.69;;;35.08;34.52
20023;BME280;10172;42.054;24.546;2023-06-22T12:37:09;98281.84;;;35.51;34.43
20023;BME280;10172;42.054;24.546;2023-06-22T12:39:35;98278.38;;;35.97;35.75
20023;BME280;10172;42.054;24.546;2023-06-22T12:42:00;98288.00;;;35.26;36.65
20023;BME280;10172;42.054;24.546;2023-06-22T12:44:26;98270.13;;;35.65;39.20
20023;BME280;10172;42.054;24.546;2023-06-22T12:46:51;98272.97;;;35.75;39.25